Time;durP1;ratioP1;P1;durP2;ratioP2;P2;SDS_P1;SDS_P2;PMS_P1;PMS_P2;Temp;Humidity;BMP_temperature;BMP_pressure;BME280_temperature;BME280_humidity;BME280_pressure;Samples;Min_cycle;Max_cycle;Signal;HPM_P1;HPM_P2
2021/10/10 00:00:46;;;;;;;;;;;;;;;7.43;75.60;97391.84;5073152;28;20011;-79
2021/10/10 00:03:11;;;;;;;;;;;;;;;7.42;75.35;97391.03;5072984;28;20371;-79
2021/10/10 00:05:37;;;;;;;;;;;;;;;7.38;75.40;97384.53;5073327;28;20048;-80
2021/10/10 00:08:03;;;;;;;;;;;;;;;7.37;75.30;97388.16;5073267;28;19952;-80
2021/10/10 00:10:31;;;;;;;;;;;;;;;7.35;75.07;97382.31;5073301;28;20104;-79
2021/10/10 00:12:57;;;;;;;;;;;;;;;7.34;75.25;97387.69;5073262;28;19959;-80
2021/10/10 00:15:24;;;;;;;;;;;;;;;7.31;75.11;97383.63;5077054;28;20428;-79
2021/10/10 00:17:49;;;;;;;;;;;;;;;7.29;75.08;97383.00;5076812;28;19947;-79
2021/10/10 00:20:15;;;;;;;;;;;;;;;7.27;75.01;97383.16;5076876;28;20322;-79
2021/10/10 00:22:42;;;;;;;;;;;;;;;7.26;75.02;97386.72;5076848;28;19961;-79
2021/10/10 00:25:08;;;;;;;;;;;;;;;7.25;75.25;97387.75;5076870;28;20061;-79
2021/10/10 00:27:35;;;;;;;;;;;;;;;7.24;74.94;97377.47;5076663;28;19969;-80
2021/10/10 00:30:02;;;;;;;;;;;;;;;7.22;75.05;97376.81;5076764;28;20410;-79
2021/10/10 00:32:28;;;;;;;;;;;;;;;7.19;75.21;97378.00;5076869;28;19953;-80
2021/10/10 00:34:54;;;;;;;;;;;;;;;7.19;75.18;97371.97;5076893;28;19964;-79
2021/10/10 00:37:20;;;;;;;;;;;;;;;7.17;75.35;97373.94;5076485;28;19948;-79
2021/10/10 00:39:45;;;;;;;;;;;;;;;7.13;75.03;97373.47;5076536;28;19998;-79
2021/10/10 00:42:11;;;;;;;;;;;;;;;7.11;75.01;97367.59;5076413;28;20009;-79
2021/10/10 00:44:37;;;;;;;;;;;;;;;7.09;74.91;97370.38;5076431;28;19960;-79
2021/10/10 00:47:04;;;;;;;;;;;;;;;7.08;75.01;97365.34;5076213;28;20340;-79
2021/10/10 00:49:30;;;;;;;;;;;;;;;7.08;74.87;97362.75;5076464;28;19964;-79
2021/10/10 00:51:57;;;;;;;;;;;;;;;7.05;74.84;97360.47;5076042;28;20016;-79
2021/10/10 00:54:23;;;;;;;;;;;;;;;7.05;74.67;97352.66;5076321;28;19968;-79
2021/10/10 00:56:53;;;;;;;;;;;;;;;7.03;74.72;97365.84;5076181;28;19952;-80
2021/10/10 00:59:21;;;;;;;;;;;;;;;7.01;74.64;97360.00;5076252;28;19966;-79
2021/10/10 01:01:50;;;;;;;;;;;;;;;6.99;74.52;97359.38;5076495;28;20420;-79
2021/10/10 01:04:16;;;;;;;;;;;;;;;6.98;74.36;97354.34;5076433;28;19960;-79
2021/10/10 01:06:42;;;;;;;;;;;;;;;6.97;74.57;97352.69;5075901;28;19970;-79
2021/10/10 01:09:11;;;;;;;;;;;;;;;6.95;74.44;97365.94;5075974;28;19960;-79
2021/10/10 01:11:37;;;;;;;;;;;;;;;6.93;74.45;97361.84;5075683;28;19954;-79
2021/10/10 01:14:04;;;;;;;;;;;;;;;6.91;74.50;97362.03;5076008;28;19979;-79
2021/10/10 01:16:30;;;;;;;;;;;;;;;6.90;74.31;97357.78;5076070;28;20434;-79
2021/10/10 01:18:57;;;;;;;;;;;;;;;6.88;74.63;97360.56;5075822;28;19958;-79
2021/10/10 01:21:23;;;;;;;;;;;;;;;6.86;74.70;97352.09;5075804;28;19957;-79
2021/10/10 01:23:49;;;;;;;;;;;;;;;6.85;74.67;97358.31;5075919;28;19953;-80
2021/10/10 01:26:15;;;;;;;;;;;;;;;6.83;74.55;97355.06;5075428;28;19977;-79
2021/10/10 01:28:41;;;;;;;;;;;;;;;6.82;74.56;97350.81;5075794;28;19956;-79
2021/10/10 01:31:07;;;;;;;;;;;;;;;6.81;74.41;97349.19;5075678;28;20485;-79
2021/10/10 01:33:33;;;;;;;;;;;;;;;6.80;74.28;97347.56;5075591;28;20011;-80
2021/10/10 01:35:59;;;;;;;;;;;;;;;6.78;74.65;97340.91;5075806;28;20040;-80
2021/10/10 01:38:25;;;;;;;;;;;;;;;6.77;74.33;97341.91;5075367;28;19966;-80
2021/10/10 01:40:51;;;;;;;;;;;;;;;6.76;74.65;97337.66;5075541;28;20501;-80
2021/10/10 01:43:17;;;;;;;;;;;;;;;6.74;74.43;97339.63;5075315;28;20141;-80
2021/10/10 01:45:43;;;;;;;;;;;;;;;6.72;74.60;97337.22;5075300;28;20010;-79
2021/10/10 01:48:10;;;;;;;;;;;;;;;6.71;74.55;97336.38;5075338;28;19975;-80
2021/10/10 01:50:37;;;;;;;;;;;;;;;6.68;74.72;97335.94;5075169;28;20335;-79
2021/10/10 01:53:04;;;;;;;;;;;;;;;6.64;74.84;97337.25;5075081;28;19985;-80
2021/10/10 01:55:30;;;;;;;;;;;;;;;6.61;74.94;97345.41;5059576;28;19958;-80
2021/10/10 01:57:56;;;;;;;;;;;;;;;6.57;75.19;97339.69;5075173;28;20315;-80
2021/10/10 02:00:25;;;;;;;;;;;;;;;6.54;75.29;97331.44;5075177;28;19947;-80
2021/10/10 02:02:51;;;;;;;;;;;;;;;6.52;75.15;97333.41;5075298;28;19950;-80
2021/10/10 02:05:17;;;;;;;;;;;;;;;6.49;75.10;97331.94;5074882;28;20051;-80
2021/10/10 02:07:43;;;;;;;;;;;;;;;6.44;74.81;97335.03;5074898;28;20467;-80
2021/10/10 02:10:09;;;;;;;;;;;;;;;6.39;75.23;97328.72;5074708;28;20046;-80
2021/10/10 02:12:36;;;;;;;;;;;;;;;6.30;75.23;97322.75;5075348;28;20423;-80
2021/10/10 02:15:03;;;;;;;;;;;;;;;6.26;75.18;97324.06;5074766;28;19943;-79
2021/10/10 02:17:29;;;;;;;;;;;;;;;6.22;75.07;97320.16;5074814;28;19969;-80
2021/10/10 02:19:54;;;;;;;;;;;;;;;6.18;75.48;97318.88;5074757;28;19994;-79
2021/10/10 02:22:20;;;;;;;;;;;;;;;6.15;75.11;97319.19;5074827;28;19994;-79
2021/10/10 02:24:46;;;;;;;;;;;;;;;6.08;75.48;97317.25;5074389;28;20057;-80
2021/10/10 02:27:12;;;;;;;;;;;;;;;6.05;75.58;97319.41;5073674;28;19976;-79
2021/10/10 02:29:38;;;;;;;;;;;;;;;6.01;75.43;97318.94;5074676;28;19959;-79
2021/10/10 02:32:04;;;;;;;;;;;;;;;5.98;75.42;97319.25;5074391;28;19951;-79
2021/10/10 02:34:30;;;;;;;;;;;;;;;5.94;75.40;97317.91;5074707;28;20004;-80
2021/10/10 02:36:56;;;;;;;;;;;;;;;5.93;75.65;97321.53;5073896;28;19953;-80
2021/10/10 02:39:21;;;;;;;;;;;;;;;5.90;76.47;97317.47;5074124;28;19960;-80
2021/10/10 02:41:47;;;;;;;;;;;;;;;5.90;76.23;97317.47;5074332;28;20334;-80
2021/10/10 02:44:13;;;;;;;;;;;;;;;5.90;77.26;97329.69;5074249;28;19982;-80
2021/10/10 02:46:39;;;;;;;;;;;;;;;5.92;77.42;97324.28;5074196;28;19972;-80
2021/10/10 02:49:05;;;;;;;;;;;;;;;5.93;77.43;97328.53;5074178;28;19969;-80
2021/10/10 02:51:31;;;;;;;;;;;;;;;5.94;77.09;97317.91;5074032;28;19988;-79
2021/10/10 02:53:57;;;;;;;;;;;;;;;5.97;77.48;97328.06;5073942;28;20012;-80
2021/10/10 02:56:23;;;;;;;;;;;;;;;5.99;77.38;97323.50;5074093;28;20363;-80
2021/10/10 02:58:49;;;;;;;;;;;;;;;6.01;77.41;97326.75;5074021;28;19961;-80
2021/10/10 03:01:15;;;;;;;;;;;;;;;6.03;77.84;97329.19;5073847;28;20320;-80
2021/10/10 03:03:41;;;;;;;;;;;;;;;6.02;77.79;97323.13;5074126;28;19960;-80
2021/10/10 03:06:09;;;;;;;;;;;;;;;6.03;77.51;97323.97;5073874;28;19955;-80
2021/10/10 03:08:38;;;;;;;;;;;;;;;6.02;77.67;97327.53;5073885;28;19977;-80
2021/10/10 03:11:05;;;;;;;;;;;;;;;6.02;77.78;97325.75;5073773;28;19956;-80
2021/10/10 03:13:31;;;;;;;;;;;;;;;6.00;77.59;97322.50;5074011;28;20019;-80
2021/10/10 03:15:58;;;;;;;;;;;;;;;5.97;77.65;97316.84;5073675;28;20466;-79
2021/10/10 03:18:25;;;;;;;;;;;;;;;5.96;77.38;97329.00;5073881;28;19958;-79
2021/10/10 03:20:51;;;;;;;;;;;;;;;5.95;77.46;97321.38;5074163;28;19960;-80
2021/10/10 03:23:17;;;;;;;;;;;;;;;5.93;77.94;97323.31;5074048;28;19974;-80
2021/10/10 03:25:43;;;;;;;;;;;;;;;5.92;78.38;97322.47;5073545;28;19997;-80
2021/10/10 03:28:09;;;;;;;;;;;;;;;5.93;77.99;97320.72;5073587;28;19962;-80
2021/10/10 03:30:34;;;;;;;;;;;;;;;5.93;78.02;97323.31;5073857;28;20322;-80
2021/10/10 03:33:00;;;;;;;;;;;;;;;5.94;78.38;97328.34;5073537;28;19962;-80
2021/10/10 03:35:26;;;;;;;;;;;;;;;5.92;78.28;97329.50;5073571;28;19998;-80
2021/10/10 03:37:52;;;;;;;;;;;;;;;5.91;77.73;97331.28;5073362;28;20025;-79
2021/10/10 03:40:18;;;;;;;;;;;;;;;5.92;78.40;97324.28;5073601;28;19993;-79
2021/10/10 03:42:44;;;;;;;;;;;;;;;5.92;78.17;97322.47;5073413;28;20060;-80
2021/10/10 03:45:10;;;;;;;;;;;;;;;5.93;78.12;97326.72;5073501;28;19969;-79
2021/10/10 03:47:36;;;;;;;;;;;;;;;5.92;77.53;97319.06;5073375;28;19967;-79
2021/10/10 03:50:03;;;;;;;;;;;;;;;5.90;77.96;97330.47;5077432;28;19967;-79
2021/10/10 03:52:29;;;;;;;;;;;;;;;5.91;78.98;97331.28;5077365;28;19982;-79
2021/10/10 03:55:26;;;;;;;;;;;;;;;5.92;78.02;97324.28;5077368;28;19966;-79
2021/10/10 03:57:53;;;;;;;;;;;;;;;5.88;77.71;97319.41;5077675;28;19954;-79
2021/10/10 04:00:20;;;;;;;;;;;;;;;5.88;78.00;97326.44;5076277;28;19955;-79
2021/10/10 04:02:46;;;;;;;;;;;;;;;5.86;77.79;97316.16;5077213;28;19979;-79
2021/10/10 04:05:55;;;;;;;;;;;;;;;5.86;77.72;97318.78;5077268;28;20435;-79
2021/10/10 04:08:01;;;;;;;;;;;;;;;5.86;77.84;97323.97;5072982;28;19993;-79
2021/10/10 04:10:27;;;;;;;;;;;;;;;5.84;77.40;97318.13;5077339;28;19996;-79
2021/10/10 04:12:53;;;;;;;;;;;;;;;5.82;76.96;97319.28;5077012;28;20391;-79
2021/10/10 04:15:19;;;;;;;;;;;;;;;5.78;76.73;97318.78;5077142;28;19952;-79
2021/10/10 04:17:46;;;;;;;;;;;;;;;5.77;76.53;97318.94;5076909;28;19970;-79
2021/10/10 04:20:12;;;;;;;;;;;;;;;5.73;76.50;97320.25;5077122;28;19966;-79
2021/10/10 04:22:39;;;;;;;;;;;;;;;5.69;76.54;97315.38;5077037;28;19964;-79
2021/10/10 04:25:05;;;;;;;;;;;;;;;5.68;76.43;97316.34;5077046;28;20335;-80
2021/10/10 04:27:35;;;;;;;;;;;;;;;5.64;76.32;97314.25;5076506;28;19969;-79
2021/10/10 04:30:05;;;;;;;;;;;;;;;5.59;76.21;97316.56;5077248;28;19957;-79
2021/10/10 04:32:31;;;;;;;;;;;;;;;5.55;76.42;97320.47;5066542;28;19962;-79
2021/10/10 04:34:57;;;;;;;;;;;;;;;5.51;76.22;97316.56;5076608;28;20045;-79
2021/10/10 04:37:23;;;;;;;;;;;;;;;5.46;76.13;97315.25;5076732;28;19960;-80
2021/10/10 04:39:49;;;;;;;;;;;;;;;5.43;76.05;97320.78;5076614;28;19952;-80
2021/10/10 04:42:15;;;;;;;;;;;;;;;5.40;75.74;97318.50;5076545;28;19972;-80
2021/10/10 04:44:41;;;;;;;;;;;;;;;5.36;75.80;97312.00;5076589;28;20013;-79
2021/10/10 04:47:07;;;;;;;;;;;;;;;5.34;76.03;97308.75;5076297;28;20027;-80
2021/10/10 04:49:34;;;;;;;;;;;;;;;5.30;75.93;97307.44;5076367;28;19967;-79
2021/10/10 04:52:02;;;;;;;;;;;;;;;5.24;76.05;97311.50;5076563;28;20316;-79
2021/10/10 04:54:28;;;;;;;;;;;;;;;5.20;76.02;97312.81;5076296;28;19951;-80
2021/10/10 04:56:54;;;;;;;;;;;;;;;5.14;75.80;97305.66;5076444;28;20428;-80
2021/10/10 04:59:20;;;;;;;;;;;;;;;5.07;76.18;97313.28;5075765;28;19954;-80
2021/10/10 05:01:48;;;;;;;;;;;;;;;5.04;76.26;97310.19;5076522;28;19959;-79
2021/10/10 05:04:14;;;;;;;;;;;;;;;5.00;75.76;97309.72;5076129;28;19952;-80
2021/10/10 05:06:40;;;;;;;;;;;;;;;4.99;75.88;97312.47;5076251;28;20070;-80
2021/10/10 05:09:06;;;;;;;;;;;;;;;4.94;76.20;97318.16;5075938;28;20418;-80
2021/10/10 05:11:32;;;;;;;;;;;;;;;4.90;76.25;97316.84;5076655;28;20409;-80
2021/10/10 05:13:58;;;;;;;;;;;;;;;4.88;76.37;97316.19;5076454;28;20013;-80
2021/10/10 05:16:24;;;;;;;;;;;;;;;4.87;76.61;97318.00;5075840;28;19955;-80
2021/10/10 05:18:50;;;;;;;;;;;;;;;4.86;76.73;97318.16;5075924;28;20381;-80
2021/10/10 05:21:16;;;;;;;;;;;;;;;4.85;76.86;97313.91;5075938;28;20025;-80
2021/10/10 05:23:41;;;;;;;;;;;;;;;4.83;76.53;97319.28;5075643;28;20002;-80
2021/10/10 05:26:08;;;;;;;;;;;;;;;4.82;76.72;97320.25;5076080;28;19983;-80
2021/10/10 05:28:34;;;;;;;;;;;;;;;4.81;76.43;97325.63;5075807;28;20318;-80
2021/10/10 05:31:00;;;;;;;;;;;;;;;4.79;76.27;97323.19;5075675;28;20007;-80
2021/10/10 05:33:25;;;;;;;;;;;;;;;4.77;76.31;97332.09;5075628;28;20330;-80
2021/10/10 05:35:51;;;;;;;;;;;;;;;4.74;76.15;97322.03;5075865;28;19949;-80
2021/10/10 05:38:17;;;;;;;;;;;;;;;4.70;76.22;97328.50;5075616;28;20052;-80
2021/10/10 05:40:43;;;;;;;;;;;;;;;4.67;76.04;97327.03;5075384;28;20053;-80
2021/10/10 05:43:09;;;;;;;;;;;;;;;4.65;76.15;97329.00;5075787;28;20321;-80
2021/10/10 05:45:35;;;;;;;;;;;;;;;4.61;76.20;97320.69;5075839;28;20147;-80
2021/10/10 05:48:01;;;;;;;;;;;;;;;4.61;75.93;97325.88;5075023;28;19968;-80
2021/10/10 05:50:27;;;;;;;;;;;;;;;4.61;75.98;97330.28;5075612;28;19992;-80
2021/10/10 05:52:53;;;;;;;;;;;;;;;4.59;75.80;97327.81;5075554;28;20026;-80
2021/10/10 05:55:22;;;;;;;;;;;;;;;4.59;75.43;97334.81;5075119;28;20401;-80
2021/10/10 05:57:50;;;;;;;;;;;;;;;4.57;75.60;97334.16;5075671;28;19958;-80
2021/10/10 06:00:17;;;;;;;;;;;;;;;4.58;75.89;97346.19;5075107;28;19964;-80
2021/10/10 06:02:44;;;;;;;;;;;;;;;4.56;76.14;97341.13;5066685;28;19947;-80
2021/10/10 06:05:10;;;;;;;;;;;;;;;4.55;76.04;97346.50;5075024;28;19959;-80
2021/10/10 06:07:37;;;;;;;;;;;;;;;4.54;75.82;97342.28;5075011;28;19979;-80
2021/10/10 06:10:04;;;;;;;;;;;;;;;4.53;75.77;97344.03;5074934;28;19956;-80
2021/10/10 06:12:34;;;;;;;;;;;;;;;4.65;75.52;97347.16;5073736;28;19960;-80
2021/10/10 06:15:01;;;;;;;;;;;;;;;5.01;75.30;97337.34;5075117;28;19957;-80
2021/10/10 06:17:28;;;;;;;;;;;;;;;5.45;74.39;97344.03;5074712;28;19966;-80
2021/10/10 06:19:54;;;;;;;;;;;;;;;5.85;73.47;97342.34;5074430;28;19954;-80
2021/10/10 06:22:20;;;;;;;;;;;;;;;6.20;72.52;97342.97;5074794;28;20482;-80
2021/10/10 06:24:46;;;;;;;;;;;;;;;6.50;71.73;97344.78;5074654;28;19960;-80
2021/10/10 06:27:11;;;;;;;;;;;;;;;6.75;71.01;97347.28;5074370;28;19954;-80
2021/10/10 06:29:37;;;;;;;;;;;;;;;6.95;70.64;97341.63;5074811;28;19955;-80
2021/10/10 06:32:03;;;;;;;;;;;;;;;7.11;70.16;97341.53;5074372;28;19960;-80
2021/10/10 06:34:29;;;;;;;;;;;;;;;7.23;69.87;97339.34;5074608;28;19972;-80
2021/10/10 06:36:55;;;;;;;;;;;;;;;7.30;69.37;97346.25;5074323;28;19956;-80
2021/10/10 06:39:21;;;;;;;;;;;;;;;7.40;68.97;97340.00;5074413;28;20047;-80
2021/10/10 06:41:50;;;;;;;;;;;;;;;7.48;68.98;97343.38;5074288;28;19954;-80
2021/10/10 06:44:16;;;;;;;;;;;;;;;7.57;68.83;97351.94;5074255;28;19975;-80
2021/10/10 06:46:42;;;;;;;;;;;;;;;7.70;68.63;97353.94;5072885;28;19961;-79
2021/10/10 06:49:08;;;;;;;;;;;;;;;7.69;68.13;97349.72;5073982;28;20319;-80
2021/10/10 06:51:34;;;;;;;;;;;;;;;7.75;68.45;97353.41;5074612;28;19989;-80
2021/10/10 06:54:00;;;;;;;;;;;;;;;7.86;68.47;97353.00;5074697;28;20334;-80
2021/10/10 06:56:26;;;;;;;;;;;;;;;7.96;68.43;97350.94;5074296;28;19971;-80
2021/10/10 06:58:52;;;;;;;;;;;;;;;7.99;68.29;97350.56;5073946;28;19954;-80
2021/10/10 07:01:18;;;;;;;;;;;;;;;8.05;68.40;97357.69;5074281;28;20421;-80
2021/10/10 07:03:44;;;;;;;;;;;;;;;8.11;68.39;97353.56;5073872;28;19962;-80
2021/10/10 07:06:09;;;;;;;;;;;;;;;8.20;68.47;97357.69;5073907;28;20000;-80
2021/10/10 07:08:35;;;;;;;;;;;;;;;8.32;68.31;97356.25;5073779;28;19985;-80
2021/10/10 07:11:01;;;;;;;;;;;;;;;8.37;68.66;97367.97;5073844;28;20410;-80
2021/10/10 07:13:27;;;;;;;;;;;;;;;8.41;68.29;97364.03;5073670;28;19959;-80
2021/10/10 07:15:56;;;;;;;;;;;;;;;8.44;68.30;97361.06;5073869;28;20008;-80
2021/10/10 07:18:27;;;;;;;;;;;;;;;8.50;68.58;97362.94;5073517;28;19952;-80
2021/10/10 07:21:05;;;;;;;;;;;;;;;8.54;68.36;97361.59;5073678;28;19969;-80
2021/10/10 07:25:58;;;;;;;;;;;;;;;8.58;67.73;97362.03;5073747;28;20045;-80
2021/10/10 07:28:24;;;;;;;;;;;;;;;8.45;67.77;97366.09;5073452;28;20344;-80
2021/10/10 07:30:51;;;;;;;;;;;;;;;8.39;68.00;97369.41;5073762;28;19961;-80
2021/10/10 07:33:17;;;;;;;;;;;;;;;8.42;69.09;97369.09;5074126;28;19958;-80
2021/10/10 07:35:44;;;;;;;;;;;;;;;8.57;68.23;97361.22;5073684;28;20334;-80
2021/10/10 07:38:10;;;;;;;;;;;;;;;8.73;68.26;97360.19;5073412;28;19950;-80
2021/10/10 07:40:36;;;;;;;;;;;;;;;8.88;67.93;97365.41;5073472;28;20060;-80
2021/10/10 07:43:02;;;;;;;;;;;;;;;8.96;66.63;97361.88;5073370;28;19963;-80
2021/10/10 07:45:28;;;;;;;;;;;;;;;9.04;67.12;97370.41;5073481;28;19957;-80
2021/10/10 07:48:02;;;;;;;;;;;;;;;9.15;67.69;97366.50;5073169;28;20452;-80
2021/10/10 07:50:29;;;;;;;;;;;;;;;9.26;67.23;97366.03;5073582;28;20297;-80
2021/10/10 07:52:55;;;;;;;;;;;;;;;9.39;65.97;97357.47;5073002;28;19982;-80
2021/10/10 07:55:21;;;;;;;;;;;;;;;9.44;65.93;97362.94;5073485;28;19959;-80
2021/10/10 07:57:47;;;;;;;;;;;;;;;9.42;66.30;97369.38;5073472;28;19964;-80
2021/10/10 08:00:13;;;;;;;;;;;;;;;9.40;64.61;97359.09;5073197;28;19964;-80
2021/10/10 08:02:49;;;;;;;;;;;;;;;9.31;65.65;97363.63;5073205;28;19959;-80
2021/10/10 08:05:16;;;;;;;;;;;;;;;9.21;65.22;97360.53;5073723;28;19961;-80
2021/10/10 08:07:42;;;;;;;;;;;;;;;9.10;65.56;97364.44;5073300;28;19969;-79
2021/10/10 08:10:08;;;;;;;;;;;;;;;9.09;66.32;97377.69;5073477;28;20424;-80
2021/10/10 08:12:34;;;;;;;;;;;;;;;9.20;66.42;97379.84;5073065;28;20006;-80
2021/10/10 08:15:00;;;;;;;;;;;;;;;9.31;66.25;97379.34;5073295;28;19970;-80
2021/10/10 08:17:26;;;;;;;;;;;;;;;9.37;66.11;97377.81;5073238;28;19964;-79
2021/10/10 08:19:52;;;;;;;;;;;;;;;9.43;66.07;97377.06;5073034;28;20317;-80
2021/10/10 08:22:18;;;;;;;;;;;;;;;9.45;66.30;97377.69;5073182;28;20433;-79
2021/10/10 08:24:44;;;;;;;;;;;;;;;9.44;65.63;97370.81;5073090;28;19958;-79
2021/10/10 08:27:10;;;;;;;;;;;;;;;9.44;67.09;97381.28;5072853;28;19954;-80
2021/10/10 08:29:36;;;;;;;;;;;;;;;9.42;65.21;97375.41;5072833;28;20506;-79
2021/10/10 08:32:02;;;;;;;;;;;;;;;9.41;66.80;97381.66;5073361;28;19982;-80
2021/10/10 08:34:28;;;;;;;;;;;;;;;9.53;67.56;97384.56;5073811;28;20058;-80
2021/10/10 08:36:57;;;;;;;;;;;;;;;9.63;65.89;97364.13;5076875;28;19977;-80
2021/10/10 08:39:24;;;;;;;;;;;;;;;9.64;65.95;97378.84;5075729;28;19972;-80
2021/10/10 08:41:53;;;;;;;;;;;;;;;9.70;66.17;97383.34;5076654;28;19958;-80
2021/10/10 08:44:20;;;;;;;;;;;;;;;9.75;65.57;97370.47;5076431;28;19967;-79
2021/10/10 08:46:45;;;;;;;;;;;;;;;9.81;66.01;97376.78;5076446;28;19959;-80
2021/10/10 08:49:11;;;;;;;;;;;;;;;9.85;65.67;97379.81;5076376;28;20075;-80
2021/10/10 08:51:38;;;;;;;;;;;;;;;9.93;66.42;97379.66;5076428;28;19990;-79
2021/10/10 08:54:04;;;;;;;;;;;;;;;10.02;66.09;97378.53;5076281;28;20349;-79
2021/10/10 08:56:31;;;;;;;;;;;;;;;10.10;65.40;97373.16;5076699;28;19997;-79
2021/10/10 08:58:58;;;;;;;;;;;;;;;10.15;65.79;97368.13;5076153;28;19962;-79
2021/10/10 09:01:30;;;;;;;;;;;;;;;10.17;65.82;97373.19;5076386;28;19955;-80
2021/10/10 09:03:56;;;;;;;;;;;;;;;10.15;66.18;97367.34;5076231;28;19953;-80
2021/10/10 09:06:22;;;;;;;;;;;;;;;10.14;65.60;97363.91;5076121;28;19954;-79
2021/10/10 09:08:48;;;;;;;;;;;;;;;10.13;65.99;97374.56;5076163;28;20336;-79
2021/10/10 09:11:14;;;;;;;;;;;;;;;10.08;66.47;97367.28;5075977;28;19964;-79
2021/10/10 09:13:41;;;;;;;;;;;;;;;10.11;65.86;97361.66;5076150;28;19956;-79
2021/10/10 09:16:08;;;;;;;;;;;;;;;10.16;66.17;97368.94;5075949;28;19953;-80
2021/10/10 09:18:41;;;;;;;;;;;;;;;10.18;66.35;97371.38;5075835;28;19967;-79
2021/10/10 09:21:15;;;;;;;;;;;;;;;10.15;66.66;97370.75;5075943;28;19962;-79
2021/10/10 09:23:44;;;;;;;;;;;;;;;10.15;66.75;97372.56;5064408;28;19970;-80
2021/10/10 09:26:10;;;;;;;;;;;;;;;10.16;66.91;97369.75;5075590;28;19955;-79
2021/10/10 09:28:36;;;;;;;;;;;;;;;10.25;67.36;97380.09;5075731;28;19985;-80
2021/10/10 09:31:05;;;;;;;;;;;;;;;10.34;66.75;97369.28;5075759;28;20042;-79
2021/10/10 09:33:39;;;;;;;;;;;;;;;10.42;66.59;97378.00;5075778;28;19971;-79
2021/10/10 09:36:08;;;;;;;;;;;;;;;10.45;66.00;97369.75;5075860;28;19987;-79
2021/10/10 09:38:43;;;;;;;;;;;;;;;10.43;66.19;97372.56;5075486;28;19960;-80
2021/10/10 09:41:25;;;;;;;;;;;;;;;10.47;66.51;97373.78;5074510;28;19954;-80
2021/10/10 09:44:01;;;;;;;;;;;;;;;10.55;66.22;97372.81;5075763;28;19958;-79
2021/10/10 09:46:29;;;;;;;;;;;;;;;10.66;65.71;97369.63;5075223;28;19962;-80
2021/10/10 09:48:55;;;;;;;;;;;;;;;10.71;65.74;97369.06;5075116;28;20355;-80
2021/10/10 09:51:31;;;;;;;;;;;;;;;10.76;65.74;97369.28;5075083;28;19977;-79
2021/10/10 09:54:01;;;;;;;;;;;;;;;10.71;65.70;97372.50;5075584;28;19962;-80
2021/10/10 09:56:26;;;;;;;;;;;;;;;10.68;64.27;97372.88;5075090;28;20291;-79
2021/10/10 09:58:52;;;;;;;;;;;;;;;10.65;66.40;97383.78;5075054;28;19970;-79
2021/10/10 10:01:21;;;;;;;;;;;;;;;10.73;65.55;97373.13;5075062;28;19966;-79
2021/10/10 10:03:56;;;;;;;;;;;;;;;10.80;65.08;97367.09;5061325;28;20478;-80
2021/10/10 10:06:22;;;;;;;;;;;;;;;10.83;64.34;97351.72;5074864;28;19954;-79
2021/10/10 10:08:48;;;;;;;;;;;;;;;10.83;63.97;97353.56;5075121;28;19969;-79
2021/10/10 10:11:14;;;;;;;;;;;;;;;10.86;63.43;97343.47;5075023;28;19958;-79
2021/10/10 10:13:40;;;;;;;;;;;;;;;10.91;65.10;97359.44;5074773;28;19961;-79
2021/10/10 10:16:06;;;;;;;;;;;;;;;11.02;65.70;97365.13;5074883;28;19959;-79
2021/10/10 10:18:32;;;;;;;;;;;;;;;11.17;66.03;97371.00;5074892;28;19962;-79
2021/10/10 10:20:59;;;;;;;;;;;;;;;11.26;63.42;97337.53;5074852;28;19959;-79
2021/10/10 10:23:25;;;;;;;;;;;;;;;11.38;64.89;97351.66;5074705;28;20335;-79
2021/10/10 10:25:51;;;;;;;;;;;;;;;11.48;65.40;97357.31;5074363;28;19964;-80
2021/10/10 10:28:17;;;;;;;;;;;;;;;11.54;64.39;97343.38;5074351;28;19980;-80
2021/10/10 10:30:43;;;;;;;;;;;;;;;11.67;64.22;97347.03;5074633;28;19982;-79
2021/10/10 10:33:10;;;;;;;;;;;;;;;11.71;62.36;97332.47;5074690;28;19994;-79
2021/10/10 10:35:43;;;;;;;;;;;;;;;11.63;60.11;97307.22;5074706;28;19956;-79
2021/10/10 10:38:09;;;;;;;;;;;;;;;11.67;62.24;97328.63;5074387;28;19966;-79
2021/10/10 10:40:37;;;;;;;;;;;;;;;11.77;63.36;97342.19;5074506;28;20053;-79
2021/10/10 10:43:06;;;;;;;;;;;;;;;11.94;60.49;97313.69;5074249;28;19963;-79
2021/10/10 10:45:39;;;;;;;;;;;;;;;12.11;61.68;97319.31;5074359;28;19956;-79
2021/10/10 10:48:07;;;;;;;;;;;;;;;12.28;62.25;97323.09;5073849;28;19951;-79
2021/10/10 10:50:34;;;;;;;;;;;;;;;12.42;59.87;97294.94;5073962;28;19962;-79
2021/10/10 10:53:01;;;;;;;;;;;;;;;12.43;60.66;97307.09;5074184;28;19982;-79
2021/10/10 10:55:32;;;;;;;;;;;;;;;12.52;59.79;97300.56;5073955;28;19971;-79
2021/10/10 10:57:58;;;;;;;;;;;;;;;12.57;59.41;97299.94;5073776;28;19951;-79
2021/10/10 11:00:34;;;;;;;;;;;;;;;12.64;56.23;97273.59;5073909;28;19961;-79
2021/10/10 11:03:00;;;;;;;;;;;;;;;12.78;55.16;97251.44;5074027;28;19981;-79
2021/10/10 11:05:32;;;;;;;;;;;;;;;12.93;54.32;97240.63;5073740;28;19958;-79
2021/10/10 11:08:02;;;;;;;;;;;;;;;13.07;57.03;97257.94;5073691;28;19961;-79
2021/10/10 11:10:29;;;;;;;;;;;;;;;13.03;50.14;97206.72;5074054;28;19967;-79
2021/10/10 11:12:56;;;;;;;;;;;;;;;13.04;55.17;97279.44;5074005;28;19958;-79
2021/10/10 11:15:22;;;;;;;;;;;;;;;13.18;56.49;97291.47;5073922;28;19966;-79
2021/10/10 11:17:55;;;;;;;;;;;;;;;13.29;56.14;97305.84;5073572;28;19957;-79
2021/10/10 11:20:21;;;;;;;;;;;;;;;13.47;53.89;97277.94;5073893;28;19961;-79
2021/10/10 11:22:47;;;;;;;;;;;;;;;13.55;55.78;97302.19;5074006;28;20427;-78
2021/10/10 11:25:13;;;;;;;;;;;;;;;13.63;52.50;97276.56;5073575;28;19967;-79
2021/10/10 11:27:40;;;;;;;;;;;;;;;13.60;52.40;97275.19;5073844;28;19962;-78
2021/10/10 11:30:07;;;;;;;;;;;;;;;13.60;54.06;97280.44;5073561;28;19984;-79
2021/10/10 11:32:48;;;;;;;;;;;;;;;13.58;51.91;97280.66;5073813;28;19968;-79
2021/10/10 11:35:21;;;;;;;;;;;;;;;13.43;49.69;97297.84;5073547;28;19981;-79
2021/10/10 11:37:58;;;;;;;;;;;;;;;13.48;54.19;97322.53;5074151;28;20050;-78
2021/10/10 11:40:24;;;;;;;;;;;;;;;13.66;53.05;97305.16;5073524;28;19959;-79
2021/10/10 11:42:53;;;;;;;;;;;;;;;13.71;48.68;97286.84;5073553;28;19966;-79
2021/10/10 11:45:23;;;;;;;;;;;;;;;13.52;47.58;97292.09;5073338;28;19967;-79
2021/10/10 11:47:50;;;;;;;;;;;;;;;13.35;49.36;97306.81;5073469;28;19969;-79
2021/10/10 11:50:16;;;;;;;;;;;;;;;13.31;51.24;97332.78;5073585;28;19978;-79
2021/10/10 11:52:52;;;;;;;;;;;;;;;13.36;49.60;97309.22;5073495;28;19992;-78
2021/10/10 11:57:52;;;;;;;;;;;;;;;13.50;52.62;97323.13;5073450;28;20043;-79
2021/10/10 12:00:19;;;;;;;;;;;;;;;13.58;52.90;97317.56;5073422;28;19964;-79
2021/10/10 12:02:46;;;;;;;;;;;;;;;13.58;48.40;97303.59;5073351;28;19956;-79
2021/10/10 12:05:19;;;;;;;;;;;;;;;13.53;48.76;97304.22;5073309;28;19978;-79
2021/10/10 12:07:47;;;;;;;;;;;;;;;13.52;51.08;97321.09;5073294;28;19965;-80
2021/10/10 12:10:14;;;;;;;;;;;;;;;13.52;50.94;97310.53;5075322;28;19975;-79
2021/10/10 12:12:40;;;;;;;;;;;;;;;13.57;50.76;97309.88;5063145;28;19963;-79
2021/10/10 12:15:06;;;;;;;;;;;;;;;13.62;52.07;97314.50;5077155;28;19967;-79
2021/10/10 12:17:32;;;;;;;;;;;;;;;13.69;52.85;97310.81;5076932;28;19957;-79
2021/10/10 12:19:59;;;;;;;;;;;;;;;13.77;53.02;97305.25;5077372;28;20026;-79
2021/10/10 12:22:26;;;;;;;;;;;;;;;13.75;47.37;97272.22;5076892;28;19967;-79
2021/10/10 12:24:52;;;;;;;;;;;;;;;13.80;50.95;97286.34;5076803;28;20403;-79
2021/10/10 12:27:28;;;;;;;;;;;;;;;13.77;47.78;97280.69;5077029;28;19956;-79
2021/10/10 12:29:54;;;;;;;;;;;;;;;13.73;50.20;97295.34;5076715;28;19992;-79
2021/10/10 12:32:21;;;;;;;;;;;;;;;13.73;49.71;97293.53;5076846;28;19971;-79
2021/10/10 12:34:47;;;;;;;;;;;;;;;13.78;52.23;97321.88;5076903;28;19954;-79
2021/10/10 12:37:21;;;;;;;;;;;;;;;13.86;51.82;97303.16;5076839;28;19959;-79
2021/10/10 12:39:47;;;;;;;;;;;;;;;13.87;47.97;97283.66;5076533;28;19955;-79
2021/10/10 12:42:14;;;;;;;;;;;;;;;13.81;51.04;97302.97;5076924;28;19954;-79
2021/10/10 12:44:39;;;;;;;;;;;;;;;13.77;49.23;97284.16;5076563;28;19951;-79
2021/10/10 12:47:06;;;;;;;;;;;;;;;13.86;51.55;97303.16;5076648;28;19963;-79
2021/10/10 12:49:33;;;;;;;;;;;;;;;13.96;50.00;97282.38;5064457;28;19996;-79
2021/10/10 12:52:01;;;;;;;;;;;;;;;14.05;50.61;97282.88;5076426;28;19987;-79
2021/10/10 12:54:28;;;;;;;;;;;;;;;14.10;50.31;97290.94;5076396;28;19960;-79
2021/10/10 12:56:58;;;;;;;;;;;;;;;14.21;50.77;97287.56;5076500;28;20324;-79